sensor_id;sensor_type;location;lat;lon;timestamp;P1;durP1;ratioP1;P2;durP2;ratioP2
49071;SDS011;74284;52.610;10.236;2024-03-02T00:04:18;21.85;;;15.32;;
49071;SDS011;74284;52.610;10.236;2024-03-02T00:06:43;23.75;;;14.90;;
49071;SDS011;74284;52.610;10.236;2024-03-02T00:09:09;23.23;;;15.60;;
49071;SDS011;74284;52.610;10.236;2024-03-02T00:11:37;20.95;;;15.27;;
49071;SDS011;74284;52.610;10.236;2024-03-02T00:14:03;20.60;;;15.23;;
49071;SDS011;74284;52.610;10.236;2024-03-02T00:16:31;24.90;;;15.48;;
49071;SDS011;74284;52.610;10.236;2024-03-02T00:19:01;23.33;;;15.45;;
49071;SDS011;74284;52.610;10.236;2024-03-02T00:21:34;23.80;;;16.30;;
49071;SDS011;74284;52.610;10.236;2024-03-02T00:23:59;24.67;;;15.73;;
49071;SDS011;74284;52.610;10.236;2024-03-02T00:26:27;23.58;;;16.52;;
49071;SDS011;74284;52.610;10.236;2024-03-02T00:31:25;25.90;;;17.50;;
49071;SDS011;74284;52.610;10.236;2024-03-02T00:33:50;27.02;;;17.15;;
49071;SDS011;74284;52.610;10.236;2024-03-02T00:36:21;25.65;;;16.50;;
49071;SDS011;74284;52.610;10.236;2024-03-02T00:38:50;26.77;;;16.73;;
49071;SDS011;74284;52.610;10.236;2024-03-02T00:41:21;25.08;;;16.60;;
49071;SDS011;74284;52.610;10.236;2024-03-02T00:46:34;23.63;;;15.77;;
49071;SDS011;74284;52.610;10.236;2024-03-02T00:49:05;24.60;;;15.50;;
49071;SDS011;74284;52.610;10.236;2024-03-02T00:51:46;24.17;;;15.80;;
49071;SDS011;74284;52.610;10.236;2024-03-02T00:54:13;23.73;;;15.98;;
49071;SDS011;74284;52.610;10.236;2024-03-02T00:56:40;24.30;;;16.02;;
49071;SDS011;74284;52.610;10.236;2024-03-02T00:59:06;25.48;;;16.92;;
49071;SDS011;74284;52.610;10.236;2024-03-02T01:01:31;25.73;;;16.67;;
49071;SDS011;74284;52.610;10.236;2024-03-02T01:03:57;26.92;;;17.08;;
49071;SDS011;74284;52.610;10.236;2024-03-02T01:06:22;23.73;;;16.55;;
49071;SDS011;74284;52.610;10.236;2024-03-02T01:08:48;25.42;;;16.58;;
49071;SDS011;74284;52.610;10.236;2024-03-02T01:11:16;24.52;;;16.25;;
49071;SDS011;74284;52.610;10.236;2024-03-02T01:13:41;23.48;;;15.63;;
49071;SDS011;74284;52.610;10.236;2024-03-02T01:16:06;26.15;;;17.88;;
49071;SDS011;74284;52.610;10.236;2024-03-02T01:18:32;26.00;;;16.75;;
49071;SDS011;74284;52.610;10.236;2024-03-02T01:20:57;26.63;;;16.70;;
49071;SDS011;74284;52.610;10.236;2024-03-02T01:23:23;24.98;;;16.63;;
49071;SDS011;74284;52.610;10.236;2024-03-02T01:25:48;25.73;;;16.80;;
49071;SDS011;74284;52.610;10.236;2024-03-02T01:30:40;24.63;;;16.10;;
49071;SDS011;74284;52.610;10.236;2024-03-02T01:33:05;25.20;;;16.50;;
49071;SDS011;74284;52.610;10.236;2024-03-02T01:35:31;24.77;;;16.55;;
49071;SDS011;74284;52.610;10.236;2024-03-02T01:37:57;25.25;;;16.85;;
49071;SDS011;74284;52.610;10.236;2024-03-02T01:40:23;25.63;;;16.77;;
49071;SDS011;74284;52.610;10.236;2024-03-02T01:42:51;24.83;;;16.05;;
49071;SDS011;74284;52.610;10.236;2024-03-02T01:45:17;25.17;;;16.52;;
49071;SDS011;74284;52.610;10.236;2024-03-02T01:47:42;24.75;;;16.48;;
49071;SDS011;74284;52.610;10.236;2024-03-02T01:52:34;26.17;;;17.15;;
49071;SDS011;74284;52.610;10.236;2024-03-02T01:54:59;26.67;;;16.98;;
49071;SDS011;74284;52.610;10.236;2024-03-02T01:57:24;22.02;;;15.77;;
49071;SDS011;74284;52.610;10.236;2024-03-02T01:59:50;27.98;;;17.27;;
49071;SDS011;74284;52.610;10.236;2024-03-02T02:02:18;24.50;;;16.98;;
49071;SDS011;74284;52.610;10.236;2024-03-02T02:04:45;25.73;;;17.45;;
49071;SDS011;74284;52.610;10.236;2024-03-02T02:07:10;23.08;;;16.08;;
49071;SDS011;74284;52.610;10.236;2024-03-02T02:09:36;23.00;;;15.30;;
49071;SDS011;74284;52.610;10.236;2024-03-02T02:12:01;26.45;;;15.88;;
49071;SDS011;74284;52.610;10.236;2024-03-02T02:16:53;25.65;;;17.48;;
49071;SDS011;74284;52.610;10.236;2024-03-02T02:19:19;24.20;;;16.38;;
49071;SDS011;74284;52.610;10.236;2024-03-02T02:21:44;32.63;;;18.10;;
49071;SDS011;74284;52.610;10.236;2024-03-02T02:24:09;32.35;;;17.30;;
49071;SDS011;74284;52.610;10.236;2024-03-02T02:26:36;28.00;;;17.38;;
49071;SDS011;74284;52.610;10.236;2024-03-02T02:29:01;23.67;;;16.05;;
49071;SDS011;74284;52.610;10.236;2024-03-02T02:31:27;25.38;;;16.65;;
49071;SDS011;74284;52.610;10.236;2024-03-02T02:34:01;28.35;;;17.15;;
49071;SDS011;74284;52.610;10.236;2024-03-02T02:36:26;23.55;;;16.10;;
49071;SDS011;74284;52.610;10.236;2024-03-02T02:38:51;26.20;;;16.50;;
49071;SDS011;74284;52.610;10.236;2024-03-02T02:41:17;24.77;;;16.40;;
49071;SDS011;74284;52.610;10.236;2024-03-02T02:43:42;25.45;;;16.73;;
49071;SDS011;74284;52.610;10.236;2024-03-02T02:46:08;24.65;;;17.23;;
49071;SDS011;74284;52.610;10.236;2024-03-02T02:48:33;26.00;;;16.57;;
49071;SDS011;74284;52.610;10.236;2024-03-02T02:50:58;26.13;;;16.07;;
49071;SDS011;74284;52.610;10.236;2024-03-02T02:53:24;24.67;;;16.40;;
49071;SDS011;74284;52.610;10.236;2024-03-02T02:55:49;25.88;;;16.50;;
49071;SDS011;74284;52.610;10.236;2024-03-02T02:58:14;22.80;;;16.15;;
49071;SDS011;74284;52.610;10.236;2024-03-02T03:00:40;26.45;;;16.52;;
49071;SDS011;74284;52.610;10.236;2024-03-02T03:03:05;24.30;;;16.67;;
49071;SDS011;74284;52.610;10.236;2024-03-02T03:05:30;23.83;;;16.55;;
49071;SDS011;74284;52.610;10.236;2024-03-02T03:07:55;25.20;;;16.48;;
49071;SDS011;74284;52.610;10.236;2024-03-02T03:10:21;23.33;;;16.25;;
49071;SDS011;74284;52.610;10.236;2024-03-02T03:12:48;25.08;;;15.98;;
49071;SDS011;74284;52.610;10.236;2024-03-02T03:15:14;24.30;;;16.10;;
49071;SDS011;74284;52.610;10.236;2024-03-02T03:17:41;26.95;;;17.17;;
49071;SDS011;74284;52.610;10.236;2024-03-02T03:20:06;24.23;;;16.48;;
49071;SDS011;74284;52.610;10.236;2024-03-02T03:22:35;27.17;;;16.83;;
49071;SDS011;74284;52.610;10.236;2024-03-02T03:25:00;24.40;;;15.63;;
49071;SDS011;74284;52.610;10.236;2024-03-02T03:27:26;24.45;;;16.08;;
49071;SDS011;74284;52.610;10.236;2024-03-02T03:29:51;23.20;;;15.82;;
49071;SDS011;74284;52.610;10.236;2024-03-02T03:32:17;24.05;;;16.50;;
49071;SDS011;74284;52.610;10.236;2024-03-02T03:34:42;27.35;;;16.15;;
49071;SDS011;74284;52.610;10.236;2024-03-02T03:37:08;27.52;;;16.73;;
49071;SDS011;74284;52.610;10.236;2024-03-02T03:39:33;23.88;;;16.33;;
49071;SDS011;74284;52.610;10.236;2024-03-02T03:42:00;20.80;;;15.27;;
49071;SDS011;74284;52.610;10.236;2024-03-02T03:44:25;23.90;;;16.02;;
49071;SDS011;74284;52.610;10.236;2024-03-02T03:46:51;22.60;;;15.35;;
49071;SDS011;74284;52.610;10.236;2024-03-02T03:49:16;25.98;;;16.60;;
49071;SDS011;74284;52.610;10.236;2024-03-02T03:51:42;27.45;;;16.35;;
49071;SDS011;74284;52.610;10.236;2024-03-02T03:54:07;24.27;;;15.52;;
49071;SDS011;74284;52.610;10.236;2024-03-02T03:56:33;24.27;;;16.13;;
49071;SDS011;74284;52.610;10.236;2024-03-02T03:58:58;24.40;;;15.30;;
49071;SDS011;74284;52.610;10.236;2024-03-02T04:03:50;22.15;;;14.85;;
49071;SDS011;74284;52.610;10.236;2024-03-02T04:06:15;24.80;;;15.93;;
49071;SDS011;74284;52.610;10.236;2024-03-02T04:08:42;22.75;;;15.73;;
49071;SDS011;74284;52.610;10.236;2024-03-02T04:11:08;25.10;;;16.15;;
49071;SDS011;74284;52.610;10.236;2024-03-02T04:13:33;23.90;;;15.10;;
49071;SDS011;74284;52.610;10.236;2024-03-02T04:15:58;21.17;;;14.30;;
49071;SDS011;74284;52.610;10.236;2024-03-02T04:18:24;23.17;;;15.50;;
49071;SDS011;74284;52.610;10.236;2024-03-02T04:20:49;22.83;;;14.80;;
49071;SDS011;74284;52.610;10.236;2024-03-02T04:23:14;22.85;;;14.77;;
49071;SDS011;74284;52.610;10.236;2024-03-02T04:25:40;24.05;;;15.88;;
49071;SDS011;74284;52.610;10.236;2024-03-02T04:28:05;22.65;;;15.15;;
49071;SDS011;74284;52.610;10.236;2024-03-02T04:30:30;22.52;;;15.20;;
49071;SDS011;74284;52.610;10.236;2024-03-02T04:32:56;23.80;;;15.85;;
49071;SDS011;74284;52.610;10.236;2024-03-02T04:35:21;23.00;;;15.20;;
49071;SDS011;74284;52.610;10.236;2024-03-02T04:37:46;29.15;;;16.77;;
49071;SDS011;74284;52.610;10.236;2024-03-02T04:40:12;25.33;;;15.57;;
49071;SDS011;74284;52.610;10.236;2024-03-02T04:42:37;24.73;;;15.35;;
49071;SDS011;74284;52.610;10.236;2024-03-02T04:45:03;27.73;;;16.77;;
49071;SDS011;74284;52.610;10.236;2024-03-02T04:47:29;28.42;;;16.42;;
49071;SDS011;74284;52.610;10.236;2024-03-02T04:49:54;24.45;;;15.95;;
49071;SDS011;74284;52.610;10.236;2024-03-02T04:52:19;23.80;;;15.32;;
49071;SDS011;74284;52.610;10.236;2024-03-02T04:54:45;23.65;;;15.30;;
49071;SDS011;74284;52.610;10.236;2024-03-02T04:57:28;23.60;;;15.13;;
49071;SDS011;74284;52.610;10.236;2024-03-02T04:59:54;24.50;;;16.48;;
49071;SDS011;74284;52.610;10.236;2024-03-02T05:02:19;23.52;;;14.95;;
49071;SDS011;74284;52.610;10.236;2024-03-02T05:04:44;23.73;;;15.80;;
49071;SDS011;74284;52.610;10.236;2024-03-02T05:07:10;24.10;;;16.17;;
49071;SDS011;74284;52.610;10.236;2024-03-02T05:09:35;27.67;;;16.63;;
49071;SDS011;74284;52.610;10.236;2024-03-02T05:12:01;23.95;;;16.00;;
49071;SDS011;74284;52.610;10.236;2024-03-02T05:14:41;26.95;;;16.38;;
49071;SDS011;74284;52.610;10.236;2024-03-02T05:17:06;24.67;;;16.00;;
49071;SDS011;74284;52.610;10.236;2024-03-02T05:19:32;25.05;;;16.42;;
49071;SDS011;74284;52.610;10.236;2024-03-02T05:21:57;22.73;;;15.02;;
49071;SDS011;74284;52.610;10.236;2024-03-02T05:24:22;24.20;;;15.90;;
49071;SDS011;74284;52.610;10.236;2024-03-02T05:26:48;25.10;;;15.98;;
49071;SDS011;74284;52.610;10.236;2024-03-02T05:29:14;23.70;;;15.75;;
49071;SDS011;74284;52.610;10.236;2024-03-02T05:31:39;23.27;;;15.52;;
49071;SDS011;74284;52.610;10.236;2024-03-02T05:34:05;24.98;;;15.75;;
49071;SDS011;74284;52.610;10.236;2024-03-02T05:36:31;24.38;;;16.23;;
49071;SDS011;74284;52.610;10.236;2024-03-02T05:41:22;25.00;;;15.73;;
49071;SDS011;74284;52.610;10.236;2024-03-02T05:43:47;24.17;;;15.82;;
49071;SDS011;74284;52.610;10.236;2024-03-02T05:46:12;24.23;;;15.70;;
49071;SDS011;74284;52.610;10.236;2024-03-02T05:48:38;24.15;;;16.20;;
49071;SDS011;74284;52.610;10.236;2024-03-02T05:51:03;24.02;;;15.57;;
49071;SDS011;74284;52.610;10.236;2024-03-02T05:53:28;24.92;;;15.93;;
49071;SDS011;74284;52.610;10.236;2024-03-02T05:55:54;25.13;;;16.08;;
49071;SDS011;74284;52.610;10.236;2024-03-02T05:58:20;25.38;;;16.83;;
49071;SDS011;74284;52.610;10.236;2024-03-02T06:01:03;27.80;;;17.58;;
49071;SDS011;74284;52.610;10.236;2024-03-02T06:03:29;28.73;;;16.25;;
49071;SDS011;74284;52.610;10.236;2024-03-02T06:05:55;26.02;;;16.15;;
49071;SDS011;74284;52.610;10.236;2024-03-02T06:08:20;24.95;;;16.42;;
49071;SDS011;74284;52.610;10.236;2024-03-02T06:10:46;22.75;;;15.95;;
49071;SDS011;74284;52.610;10.236;2024-03-02T06:13:11;27.30;;;17.17;;
49071;SDS011;74284;52.610;10.236;2024-03-02T06:15:36;25.73;;;16.80;;
49071;SDS011;74284;52.610;10.236;2024-03-02T06:18:02;25.67;;;16.13;;
49071;SDS011;74284;52.610;10.236;2024-03-02T06:20:27;28.27;;;16.80;;
49071;SDS011;74284;52.610;10.236;2024-03-02T06:22:55;24.80;;;16.98;;
49071;SDS011;74284;52.610;10.236;2024-03-02T06:25:21;29.42;;;17.42;;
49071;SDS011;74284;52.610;10.236;2024-03-02T06:27:46;27.40;;;17.30;;
49071;SDS011;74284;52.610;10.236;2024-03-02T06:30:12;25.95;;;16.98;;
49071;SDS011;74284;52.610;10.236;2024-03-02T06:32:37;28.70;;;18.35;;
49071;SDS011;74284;52.610;10.236;2024-03-02T06:35:03;23.23;;;16.75;;
49071;SDS011;74284;52.610;10.236;2024-03-02T06:37:29;26.38;;;16.77;;
49071;SDS011;74284;52.610;10.236;2024-03-02T06:39:55;31.40;;;18.50;;
49071;SDS011;74284;52.610;10.236;2024-03-02T06:42:20;27.52;;;17.23;;
49071;SDS011;74284;52.610;10.236;2024-03-02T06:44:45;26.63;;;17.17;;
49071;SDS011;74284;52.610;10.236;2024-03-02T06:47:11;30.10;;;18.52;;
49071;SDS011;74284;52.610;10.236;2024-03-02T06:49:36;28.20;;;17.88;;
49071;SDS011;74284;52.610;10.236;2024-03-02T06:52:01;29.30;;;17.30;;
49071;SDS011;74284;52.610;10.236;2024-03-02T06:54:27;29.13;;;17.23;;
49071;SDS011;74284;52.610;10.236;2024-03-02T06:56:52;31.40;;;18.00;;
49071;SDS011;74284;52.610;10.236;2024-03-02T06:59:17;31.70;;;18.33;;
49071;SDS011;74284;52.610;10.236;2024-03-02T07:01:43;29.00;;;18.77;;
49071;SDS011;74284;52.610;10.236;2024-03-02T07:04:08;26.10;;;17.70;;
49071;SDS011;74284;52.610;10.236;2024-03-02T07:06:34;27.60;;;18.10;;
49071;SDS011;74284;52.610;10.236;2024-03-02T07:08:59;29.13;;;18.60;;
49071;SDS011;74284;52.610;10.236;2024-03-02T07:11:24;28.08;;;17.63;;
49071;SDS011;74284;52.610;10.236;2024-03-02T07:13:50;28.77;;;18.80;;
49071;SDS011;74284;52.610;10.236;2024-03-02T07:16:15;30.33;;;18.77;;
49071;SDS011;74284;52.610;10.236;2024-03-02T07:18:53;29.38;;;18.55;;
49071;SDS011;74284;52.610;10.236;2024-03-02T07:21:21;28.63;;;18.30;;
49071;SDS011;74284;52.610;10.236;2024-03-02T07:26:12;30.80;;;18.75;;
49071;SDS011;74284;52.610;10.236;2024-03-02T07:28:38;30.30;;;18.83;;
49071;SDS011;74284;52.610;10.236;2024-03-02T07:31:04;31.60;;;19.52;;
49071;SDS011;74284;52.610;10.236;2024-03-02T07:35:55;30.92;;;18.98;;
49071;SDS011;74284;52.610;10.236;2024-03-02T07:38:21;26.17;;;17.38;;
49071;SDS011;74284;52.610;10.236;2024-03-02T07:40:47;30.00;;;17.92;;
49071;SDS011;74284;52.610;10.236;2024-03-02T07:43:15;26.42;;;17.08;;
49071;SDS011;74284;52.610;10.236;2024-03-02T07:45:41;25.92;;;17.48;;
49071;SDS011;74284;52.610;10.236;2024-03-02T07:48:07;26.17;;;17.23;;
49071;SDS011;74284;52.610;10.236;2024-03-02T07:50:32;27.52;;;16.55;;
49071;SDS011;74284;52.610;10.236;2024-03-02T07:53:00;29.02;;;15.88;;
49071;SDS011;74284;52.610;10.236;2024-03-02T07:55:28;25.40;;;17.15;;
49071;SDS011;74284;52.610;10.236;2024-03-02T07:57:54;27.33;;;17.00;;
49071;SDS011;74284;52.610;10.236;2024-03-02T08:00:20;26.05;;;16.33;;
49071;SDS011;74284;52.610;10.236;2024-03-02T08:02:45;26.25;;;16.25;;
49071;SDS011;74284;52.610;10.236;2024-03-02T08:05:11;23.65;;;16.27;;
49071;SDS011;74284;52.610;10.236;2024-03-02T08:07:36;22.98;;;15.65;;
49071;SDS011;74284;52.610;10.236;2024-03-02T08:10:02;22.95;;;14.75;;
49071;SDS011;74284;52.610;10.236;2024-03-02T08:12:28;24.30;;;15.25;;
49071;SDS011;74284;52.610;10.236;2024-03-02T08:14:53;20.40;;;14.00;;
49071;SDS011;74284;52.610;10.236;2024-03-02T08:17:18;22.55;;;14.32;;
49071;SDS011;74284;52.610;10.236;2024-03-02T08:19:44;21.58;;;14.15;;
49071;SDS011;74284;52.610;10.236;2024-03-02T08:22:09;20.77;;;14.82;;
49071;SDS011;74284;52.610;10.236;2024-03-02T08:24:35;22.17;;;14.38;;
49071;SDS011;74284;52.610;10.236;2024-03-02T08:27:00;20.65;;;14.25;;
49071;SDS011;74284;52.610;10.236;2024-03-02T08:29:26;20.65;;;14.50;;
49071;SDS011;74284;52.610;10.236;2024-03-02T08:31:52;20.90;;;14.32;;
49071;SDS011;74284;52.610;10.236;2024-03-02T08:34:18;20.00;;;14.48;;
49071;SDS011;74284;52.610;10.236;2024-03-02T08:36:43;21.23;;;14.38;;
49071;SDS011;74284;52.610;10.236;2024-03-02T08:41:44;20.63;;;14.50;;
49071;SDS011;74284;52.610;10.236;2024-03-02T08:44:11;20.35;;;14.00;;
49071;SDS011;74284;52.610;10.236;2024-03-02T08:46:37;19.38;;;14.10;;
49071;SDS011;74284;52.610;10.236;2024-03-02T08:49:02;19.88;;;13.50;;
49071;SDS011;74284;52.610;10.236;2024-03-02T08:53:53;22.23;;;14.35;;
49071;SDS011;74284;52.610;10.236;2024-03-02T08:56:18;18.63;;;13.55;;
49071;SDS011;74284;52.610;10.236;2024-03-02T08:58:45;21.88;;;14.60;;
49071;SDS011;74284;52.610;10.236;2024-03-02T09:01:10;21.17;;;14.65;;
49071;SDS011;74284;52.610;10.236;2024-03-02T09:06:02;19.95;;;13.38;;
49071;SDS011;74284;52.610;10.236;2024-03-02T09:08:28;17.48;;;12.35;;
49071;SDS011;74284;52.610;10.236;2024-03-02T09:10:54;19.58;;;13.07;;
49071;SDS011;74284;52.610;10.236;2024-03-02T09:13:20;18.98;;;13.20;;
49071;SDS011;74284;52.610;10.236;2024-03-02T09:18:11;18.92;;;13.68;;
49071;SDS011;74284;52.610;10.236;2024-03-02T09:23:02;22.90;;;13.48;;
49071;SDS011;74284;52.610;10.236;2024-03-02T09:27:52;19.05;;;13.55;;
49071;SDS011;74284;52.610;10.236;2024-03-02T09:30:17;20.88;;;12.88;;
49071;SDS011;74284;52.610;10.236;2024-03-02T09:35:08;18.15;;;13.32;;
49071;SDS011;74284;52.610;10.236;2024-03-02T09:39:59;16.42;;;12.23;;
49071;SDS011;74284;52.610;10.236;2024-03-02T09:44:50;17.80;;;12.35;;
49071;SDS011;74284;52.610;10.236;2024-03-02T09:49:42;17.38;;;12.30;;
49071;SDS011;74284;52.610;10.236;2024-03-02T09:52:08;20.10;;;13.73;;
49071;SDS011;74284;52.610;10.236;2024-03-02T09:54:35;23.73;;;13.23;;
49071;SDS011;74284;52.610;10.236;2024-03-02T09:59:27;16.98;;;12.15;;
49071;SDS011;74284;52.610;10.236;2024-03-02T10:01:57;21.13;;;13.32;;
49071;SDS011;74284;52.610;10.236;2024-03-02T10:04:25;17.33;;;12.18;;
49071;SDS011;74284;52.610;10.236;2024-03-02T10:06:51;19.05;;;12.88;;
49071;SDS011;74284;52.610;10.236;2024-03-02T10:12:03;18.20;;;12.60;;
49071;SDS011;74284;52.610;10.236;2024-03-02T10:14:29;18.30;;;12.30;;
49071;SDS011;74284;52.610;10.236;2024-03-02T10:19:26;18.20;;;11.57;;
49071;SDS011;74284;52.610;10.236;2024-03-02T10:24:18;22.60;;;13.57;;
49071;SDS011;74284;52.610;10.236;2024-03-02T10:26:44;16.27;;;11.15;;
49071;SDS011;74284;52.610;10.236;2024-03-02T10:31:39;15.27;;;11.13;;
49071;SDS011;74284;52.610;10.236;2024-03-02T10:34:06;15.95;;;11.85;;
49071;SDS011;74284;52.610;10.236;2024-03-02T10:36:33;17.02;;;11.35;;
49071;SDS011;74284;52.610;10.236;2024-03-02T10:39:01;19.13;;;11.50;;
49071;SDS011;74284;52.610;10.236;2024-03-02T10:41:28;25.25;;;13.10;;
49071;SDS011;74284;52.610;10.236;2024-03-02T10:43:59;19.00;;;12.07;;
49071;SDS011;74284;52.610;10.236;2024-03-02T10:46:28;20.17;;;11.93;;
49071;SDS011;74284;52.610;10.236;2024-03-02T10:48:55;17.67;;;11.80;;
49071;SDS011;74284;52.610;10.236;2024-03-02T10:51:23;17.50;;;12.13;;
49071;SDS011;74284;52.610;10.236;2024-03-02T10:56:16;16.13;;;12.15;;
49071;SDS011;74284;52.610;10.236;2024-03-02T10:58:49;15.85;;;11.70;;
49071;SDS011;74284;52.610;10.236;2024-03-02T11:01:20;17.27;;;12.25;;
49071;SDS011;74284;52.610;10.236;2024-03-02T11:06:12;17.77;;;11.73;;
49071;SDS011;74284;52.610;10.236;2024-03-02T11:08:38;17.40;;;11.90;;
49071;SDS011;74284;52.610;10.236;2024-03-02T11:11:06;18.33;;;11.55;;
49071;SDS011;74284;52.610;10.236;2024-03-02T11:13:36;15.82;;;11.07;;
49071;SDS011;74284;52.610;10.236;2024-03-02T11:16:06;15.65;;;10.70;;
49071;SDS011;74284;52.610;10.236;2024-03-02T11:18:37;16.30;;;11.00;;
49071;SDS011;74284;52.610;10.236;2024-03-02T11:21:04;17.60;;;11.57;;
49071;SDS011;74284;52.610;10.236;2024-03-02T11:23:31;17.20;;;11.38;;
49071;SDS011;74284;52.610;10.236;2024-03-02T11:28:50;15.25;;;10.82;;
49071;SDS011;74284;52.610;10.236;2024-03-02T11:33:42;15.05;;;10.38;;
49071;SDS011;74284;52.610;10.236;2024-03-02T11:38:34;18.75;;;11.20;;
49071;SDS011;74284;52.610;10.236;2024-03-02T11:41:01;15.70;;;10.60;;
49071;SDS011;74284;52.610;10.236;2024-03-02T11:43:27;15.07;;;10.98;;
49071;SDS011;74284;52.610;10.236;2024-03-02T11:48:25;17.08;;;10.50;;
49071;SDS011;74284;52.610;10.236;2024-03-02T11:53:17;14.77;;;10.90;;
49071;SDS011;74284;52.610;10.236;2024-03-02T11:55:43;15.88;;;10.13;;
49071;SDS011;74284;52.610;10.236;2024-03-02T11:58:11;14.88;;;10.43;;
49071;SDS011;74284;52.610;10.236;2024-03-02T12:00:38;13.45;;;9.27;;
49071;SDS011;74284;52.610;10.236;2024-03-02T12:05:30;14.90;;;9.47;;
49071;SDS011;74284;52.610;10.236;2024-03-02T12:08:00;14.95;;;10.73;;
49071;SDS011;74284;52.610;10.236;2024-03-02T12:10:29;12.88;;;9.27;;
49071;SDS011;74284;52.610;10.236;2024-03-02T12:12:56;15.27;;;9.02;;
49071;SDS011;74284;52.610;10.236;2024-03-02T12:15:29;12.80;;;8.95;;
49071;SDS011;74284;52.610;10.236;2024-03-02T12:17:57;14.07;;;9.18;;
49071;SDS011;74284;52.610;10.236;2024-03-02T12:20:24;15.00;;;9.32;;
49071;SDS011;74284;52.610;10.236;2024-03-02T12:22:53;11.80;;;8.30;;
49071;SDS011;74284;52.610;10.236;2024-03-02T12:25:20;14.75;;;9.00;;
49071;SDS011;74284;52.610;10.236;2024-03-02T12:27:46;12.77;;;8.80;;
49071;SDS011;74284;52.610;10.236;2024-03-02T12:30:14;13.10;;;9.02;;
49071;SDS011;74284;52.610;10.236;2024-03-02T12:32:41;12.02;;;8.45;;
49071;SDS011;74284;52.610;10.236;2024-03-02T12:37:32;11.88;;;7.88;;
49071;SDS011;74284;52.610;10.236;2024-03-02T12:39:58;11.18;;;7.63;;
49071;SDS011;74284;52.610;10.236;2024-03-02T12:44:51;12.77;;;7.78;;
49071;SDS011;74284;52.610;10.236;2024-03-02T12:47:19;14.23;;;8.30;;
49071;SDS011;74284;52.610;10.236;2024-03-02T12:52:12;10.55;;;7.35;;
49071;SDS011;74284;52.610;10.236;2024-03-02T12:54:38;11.48;;;6.97;;
49071;SDS011;74284;52.610;10.236;2024-03-02T12:59:29;11.63;;;7.55;;
49071;SDS011;74284;52.610;10.236;2024-03-02T13:04:25;12.40;;;8.18;;
49071;SDS011;74284;52.610;10.236;2024-03-02T13:06:51;10.63;;;8.07;;
49071;SDS011;74284;52.610;10.236;2024-03-02T13:09:18;12.25;;;8.45;;
49071;SDS011;74284;52.610;10.236;2024-03-02T13:14:10;12.45;;;7.78;;
49071;SDS011;74284;52.610;10.236;2024-03-02T13:16:42;13.82;;;7.28;;
49071;SDS011;74284;52.610;10.236;2024-03-02T13:19:08;10.30;;;7.03;;
49071;SDS011;74284;52.610;10.236;2024-03-02T13:21:34;11.82;;;7.75;;
49071;SDS011;74284;52.610;10.236;2024-03-02T13:26:25;11.88;;;7.85;;
49071;SDS011;74284;52.610;10.236;2024-03-02T13:31:16;10.85;;;7.20;;
49071;SDS011;74284;52.610;10.236;2024-03-02T13:36:07;10.67;;;6.67;;
49071;SDS011;74284;52.610;10.236;2024-03-02T13:40:57;8.60;;;6.00;;
49071;SDS011;74284;52.610;10.236;2024-03-02T13:43:24;10.38;;;7.03;;
49071;SDS011;74284;52.610;10.236;2024-03-02T13:48:17;10.90;;;6.88;;
49071;SDS011;74284;52.610;10.236;2024-03-02T13:53:07;11.60;;;6.87;;
49071;SDS011;74284;52.610;10.236;2024-03-02T13:55:33;10.57;;;6.78;;
49071;SDS011;74284;52.610;10.236;2024-03-02T14:00:24;10.65;;;6.97;;
49071;SDS011;74284;52.610;10.236;2024-03-02T14:05:15;9.68;;;6.40;;
49071;SDS011;74284;52.610;10.236;2024-03-02T14:10:07;10.77;;;6.72;;
49071;SDS011;74284;52.610;10.236;2024-03-02T14:14:58;9.32;;;6.68;;
49071;SDS011;74284;52.610;10.236;2024-03-02T14:17:24;7.63;;;5.72;;
49071;SDS011;74284;52.610;10.236;2024-03-02T14:19:50;10.75;;;6.38;;
49071;SDS011;74284;52.610;10.236;2024-03-02T14:22:16;8.80;;;6.22;;
49071;SDS011;74284;52.610;10.236;2024-03-02T14:24:42;10.88;;;6.70;;
49071;SDS011;74284;52.610;10.236;2024-03-02T14:27:08;9.32;;;6.07;;
49071;SDS011;74284;52.610;10.236;2024-03-02T14:32:01;10.15;;;6.75;;
49071;SDS011;74284;52.610;10.236;2024-03-02T14:34:28;10.27;;;6.28;;
49071;SDS011;74284;52.610;10.236;2024-03-02T14:36:53;4.32;;;2.47;;
49071;SDS011;74284;52.610;10.236;2024-03-02T14:41:44;3.35;;;1.67;;
49071;SDS011;74284;52.610;10.236;2024-03-02T14:44:10;3.42;;;1.70;;
49071;SDS011;74284;52.610;10.236;2024-03-02T14:46:35;2.75;;;1.50;;
49071;SDS011;74284;52.610;10.236;2024-03-02T14:51:26;2.30;;;1.33;;
49071;SDS011;74284;52.610;10.236;2024-03-02T14:53:51;2.90;;;1.50;;
49071;SDS011;74284;52.610;10.236;2024-03-02T14:58:42;7.70;;;4.93;;
49071;SDS011;74284;52.610;10.236;2024-03-02T15:03:34;8.60;;;5.65;;
49071;SDS011;74284;52.610;10.236;2024-03-02T15:06:00;7.65;;;5.40;;
49071;SDS011;74284;52.610;10.236;2024-03-02T15:08:26;10.48;;;6.15;;
49071;SDS011;74284;52.610;10.236;2024-03-02T15:10:52;10.15;;;6.47;;
49071;SDS011;74284;52.610;10.236;2024-03-02T15:15:42;6.80;;;4.45;;
49071;SDS011;74284;52.610;10.236;2024-03-02T15:18:08;5.25;;;2.70;;
49071;SDS011;74284;52.610;10.236;2024-03-02T15:22:59;3.97;;;1.90;;
49071;SDS011;74284;52.610;10.236;2024-03-02T15:27:50;4.32;;;2.58;;
49071;SDS011;74284;52.610;10.236;2024-03-02T15:30:15;4.20;;;2.10;;
49071;SDS011;74284;52.610;10.236;2024-03-02T15:32:41;4.57;;;2.40;;
49071;SDS011;74284;52.610;10.236;2024-03-02T15:35:07;6.35;;;3.28;;
49071;SDS011;74284;52.610;10.236;2024-03-02T15:37:32;6.45;;;4.22;;
49071;SDS011;74284;52.610;10.236;2024-03-02T15:42:30;7.47;;;4.70;;
49071;SDS011;74284;52.610;10.236;2024-03-02T15:44:56;7.32;;;4.30;;
49071;SDS011;74284;52.610;10.236;2024-03-02T15:49:46;6.32;;;4.40;;
49071;SDS011;74284;52.610;10.236;2024-03-02T15:52:11;9.77;;;4.00;;
49071;SDS011;74284;52.610;10.236;2024-03-02T15:54:40;6.40;;;4.32;;
49071;SDS011;74284;52.610;10.236;2024-03-02T15:57:05;7.45;;;4.63;;
49071;SDS011;74284;52.610;10.236;2024-03-02T15:59:31;6.63;;;3.75;;
49071;SDS011;74284;52.610;10.236;2024-03-02T16:01:56;6.53;;;3.80;;
49071;SDS011;74284;52.610;10.236;2024-03-02T16:04:23;5.95;;;3.50;;
49071;SDS011;74284;52.610;10.236;2024-03-02T16:06:48;5.88;;;3.60;;
49071;SDS011;74284;52.610;10.236;2024-03-02T16:11:39;5.43;;;3.00;;
49071;SDS011;74284;52.610;10.236;2024-03-02T16:16:29;7.50;;;4.40;;
49071;SDS011;74284;52.610;10.236;2024-03-02T16:21:20;7.45;;;3.72;;
49071;SDS011;74284;52.610;10.236;2024-03-02T16:23:50;6.72;;;4.05;;
49071;SDS011;74284;52.610;10.236;2024-03-02T16:28:40;5.10;;;3.05;;
49071;SDS011;74284;52.610;10.236;2024-03-02T16:33:31;5.65;;;3.15;;
49071;SDS011;74284;52.610;10.236;2024-03-02T16:35:56;7.03;;;3.72;;
49071;SDS011;74284;52.610;10.236;2024-03-02T16:40:47;8.73;;;4.65;;
49071;SDS011;74284;52.610;10.236;2024-03-02T16:45:38;8.13;;;5.13;;
49071;SDS011;74284;52.610;10.236;2024-03-02T16:50:29;60.22;;;8.40;;
49071;SDS011;74284;52.610;10.236;2024-03-02T16:55:21;10.00;;;5.90;;